Terminal Aerodrome Forecast
Issued by NWS Sioux Falls, SD

Home | Current Version | Previous Version | Graphics & Text | Print | Product List | Glossary On
Versions: 1 2 3 4 5 6 7 8 9 10 11 12 13 14 15 16 17
000
FTUS43 KFSD 281130
TAFFSD
TAF
KFSD 281130Z 2812/2912 03004KT 3SM -SHRA OVC015
     FM281700 02007KT 6SM SHRA OVC020
     FM281900 01007KT P6SM SHRA VCTS OVC035CB
     FM282300 34008KT P6SM OVC050
     FM290500 29004KT P6SM BKN080
     FM290600 29004KT P6SM SCT090=

USA.gov is the U.S. government's official web portal to all federal, state and local government web resources and services.